createdAt,value
2022-11-28T00:00:26.459Z,74.29
2022-11-28T00:01:26.751Z,74.29
2022-11-28T00:02:27.251Z,74.33
2022-11-28T00:03:27.423Z,74.43
2022-11-28T00:04:27.662Z,74.84
2022-11-28T00:05:27.931Z,74.74
2022-11-28T00:06:28.235Z,74.43
2022-11-28T00:07:28.627Z,74.22
2022-11-28T00:08:28.806Z,74.43
2022-11-28T00:09:29.132Z,74.22
2022-11-28T00:10:29.420Z,74.22
2022-11-28T00:11:29.746Z,74.22
2022-11-28T00:12:30.410Z,74.43
2022-11-28T00:13:30.377Z,74.63
2022-11-28T00:14:30.705Z,74.74
2022-11-28T00:15:30.990Z,74.63
2022-11-28T00:16:31.426Z,74.63
2022-11-28T00:17:31.668Z,74.43
2022-11-28T00:18:31.881Z,74.63
2022-11-28T00:19:32.665Z,74.74
2022-11-28T00:20:32.443Z,75.05
2022-11-28T00:21:32.803Z,75.60
2022-11-28T00:22:33.102Z,75.60
2022-11-28T00:23:33.382Z,75.25
2022-11-28T00:24:33.840Z,75.39
2022-11-28T00:25:33.939Z,75.60
2022-11-28T00:26:34.240Z,75.60
2022-11-28T00:27:34.548Z,75.67
2022-11-28T00:28:34.868Z,75.46
2022-11-28T00:29:35.164Z,75.35
2022-11-28T00:30:35.475Z,75.35
2022-11-28T00:31:36.014Z,75.56
2022-11-28T00:32:35.998Z,75.35
2022-11-28T00:33:36.289Z,75.25
2022-11-28T00:34:36.581Z,75.25
2022-11-28T00:35:36.922Z,75.15
2022-11-28T00:36:37.199Z,74.77
2022-11-28T00:37:37.484Z,74.88
2022-11-28T00:38:37.807Z,75.08
2022-11-28T00:39:38.107Z,75.29
2022-11-28T00:40:38.379Z,75.39
2022-11-28T00:41:38.689Z,75.49
2022-11-28T00:42:38.943Z,75.49
2022-11-28T00:43:39.321Z,75.84
2022-11-28T00:44:39.901Z,75.94
2022-11-28T00:45:39.949Z,76.35
2022-11-28T00:46:40.112Z,76.70
2022-11-28T00:47:40.456Z,77.01
2022-11-28T00:48:40.784Z,77.01
2022-11-28T00:49:41.151Z,76.97
2022-11-28T00:50:41.312Z,76.66
2022-11-28T00:51:41.658Z,76.56
2022-11-28T00:52:41.926Z,76.35
2022-11-28T00:53:42.283Z,76.21
2022-11-28T00:54:42.788Z,76.11
2022-11-28T00:55:42.907Z,76.11
2022-11-28T00:56:43.227Z,76.11
2022-11-28T00:57:43.513Z,76.01
2022-11-28T00:58:43.807Z,76.11
2022-11-28T00:59:44.142Z,76.11
2022-11-28T01:00:44.461Z,75.81
2022-11-28T01:01:44.861Z,75.81
2022-11-28T01:02:45.068Z,75.84
2022-11-28T01:03:45.348Z,76.15
2022-11-28T01:04:45.639Z,76.49
2022-11-28T01:05:45.929Z,76.90
2022-11-28T01:06:46.255Z,77.11
2022-11-28T01:07:46.620Z,77.11
2022-11-28T01:08:46.786Z,77.08
2022-11-28T01:09:47.156Z,76.76
2022-11-28T01:10:47.330Z,76.66
2022-11-28T01:11:47.609Z,76.46
2022-11-28T01:12:47.904Z,76.66
2022-11-28T01:13:49.046Z,77.01
2022-11-28T01:14:48.764Z,77.11
2022-11-28T01:15:48.917Z,77.22
2022-11-28T01:16:49.183Z,77.42
2022-11-28T01:17:49.450Z,77.52
2022-11-28T01:18:49.633Z,77.62
2022-11-28T01:19:50.356Z,77.52
2022-11-28T01:20:50.175Z,77.52
2022-11-28T01:21:50.484Z,77.52
2022-11-28T01:22:50.764Z,77.42
2022-11-28T01:23:51.074Z,77.11
2022-11-28T01:24:51.357Z,77.11
2022-11-28T01:25:51.685Z,76.97
2022-11-28T01:26:51.950Z,76.97
2022-11-28T01:27:52.275Z,76.87
2022-11-28T01:28:52.586Z,76.87
2022-11-28T01:29:52.903Z,76.66
2022-11-28T01:30:54.110Z,76.66
2022-11-28T01:31:53.623Z,76.56
2022-11-28T01:32:53.781Z,76.66
2022-11-28T01:33:54.150Z,76.66
2022-11-28T01:34:56.454Z,76.66
2022-11-28T01:35:54.642Z,76.35
2022-11-28T01:36:54.949Z,76.25
2022-11-28T01:37:55.256Z,76.25
2022-11-28T01:38:55.616Z,76.35
2022-11-28T01:39:55.903Z,76.35
2022-11-28T01:40:56.190Z,76.46
2022-11-28T01:41:56.458Z,76.56
2022-11-28T01:42:56.757Z,76.87
2022-11-28T01:43:57.132Z,76.97
2022-11-28T01:44:57.296Z,76.66
2022-11-28T01:45:57.625Z,76.46
2022-11-28T01:46:57.990Z,76.15
2022-11-28T01:47:58.239Z,76.35
2022-11-28T01:48:58.493Z,76.29
2022-11-28T01:49:58.835Z,76.08
2022-11-28T01:50:59.108Z,76.39
2022-11-28T01:51:59.411Z,76.59
2022-11-28T01:52:59.697Z,76.39
2022-11-28T01:54:00.059Z,76.29
2022-11-28T01:55:00.350Z,76.18
2022-11-28T01:56:00.678Z,76.49
2022-11-28T01:57:00.914Z,76.49
2022-11-28T01:58:01.282Z,76.59
2022-11-28T01:59:01.552Z,76.59
2022-11-28T02:00:01.870Z,76.59
2022-11-28T02:01:02.313Z,76.49
2022-11-28T02:02:02.589Z,76.15
2022-11-28T02:03:02.771Z,76.25
2022-11-28T02:04:03.073Z,75.73
2022-11-28T02:05:03.464Z,75.67
2022-11-28T02:06:03.686Z,75.87
2022-11-28T02:07:03.968Z,75.87
2022-11-28T02:08:04.276Z,75.98
2022-11-28T02:09:04.551Z,76.08
2022-11-28T02:10:04.897Z,75.67
2022-11-28T02:11:05.177Z,75.87
2022-11-28T02:12:05.458Z,75.98
2022-11-28T02:13:05.737Z,75.84
2022-11-28T02:14:06.046Z,75.63
2022-11-28T02:15:06.368Z,75.63
2022-11-28T02:16:06.776Z,74.91
2022-11-28T02:17:06.944Z,74.60
2022-11-28T02:18:07.277Z,74.71
2022-11-28T02:19:07.555Z,74.71
2022-11-28T02:20:07.888Z,74.50
2022-11-28T02:21:08.272Z,74.19
2022-11-28T02:22:09.423Z,74.29
2022-11-28T02:23:08.860Z,74.40
2022-11-28T02:24:09.112Z,74.40
2022-11-28T02:25:09.351Z,74.50
2022-11-28T02:26:09.632Z,74.60
2022-11-28T02:27:09.943Z,74.60
2022-11-28T02:28:10.248Z,74.50
2022-11-28T02:29:11.372Z,74.50
2022-11-28T02:30:10.909Z,74.43
2022-11-28T02:31:12.068Z,74.60
2022-11-28T02:32:12.363Z,74.60
2022-11-28T02:33:14.045Z,74.60
2022-11-28T02:34:12.130Z,74.50
2022-11-28T02:35:17.111Z,74.53
2022-11-28T02:36:12.773Z,74.63
2022-11-28T02:37:15.323Z,74.63
2022-11-28T02:38:13.280Z,74.74
2022-11-28T02:39:15.420Z,74.84
2022-11-28T02:40:16.579Z,74.95
2022-11-28T02:41:15.110Z,75.05
2022-11-28T02:42:19.752Z,75.15
2022-11-28T02:43:17.925Z,75.05
2022-11-28T02:44:19.573Z,74.80
2022-11-28T02:45:25.724Z,75.43
2022-11-28T02:46:20.596Z,75.84
2022-11-28T02:47:19.152Z,75.84
2022-11-28T02:48:22.776Z,75.53
2022-11-28T02:49:22.420Z,75.73
2022-11-28T02:50:22.071Z,75.73
2022-11-28T02:51:30.719Z,75.84
2022-11-28T02:52:23.348Z,75.84
2022-11-28T02:53:45.559Z,75.73
2022-11-28T02:54:46.242Z,75.32
2022-11-28T02:55:22.368Z,75.84
2022-11-28T02:56:21.641Z,75.63
2022-11-28T02:57:19.989Z,75.01
2022-11-28T02:58:19.276Z,74.80
2022-11-28T02:59:19.656Z,75.26
2022-11-28T03:00:19.815Z,75.26
2022-11-28T03:01:20.222Z,75.32
2022-11-28T03:02:20.451Z,75.26
2022-11-28T03:03:20.640Z,75.26
2022-11-28T03:04:21.006Z,75.26
2022-11-28T03:05:21.234Z,75.36
2022-11-28T03:06:21.601Z,75.56
2022-11-28T03:07:21.860Z,75.67
2022-11-28T03:08:22.083Z,75.77
2022-11-28T03:09:22.336Z,75.56
2022-11-28T03:10:22.720Z,75.53
2022-11-28T03:11:23.001Z,75.43
2022-11-28T03:12:23.284Z,75.43
2022-11-28T03:13:23.488Z,75.32
2022-11-28T03:14:23.810Z,75.22
2022-11-28T03:15:24.124Z,75.22
2022-11-28T03:16:24.500Z,75.22
2022-11-28T03:17:24.710Z,75.12
2022-11-28T03:18:25.026Z,75.32
2022-11-28T03:19:25.338Z,75.53
2022-11-28T03:20:25.628Z,75.73
2022-11-28T03:21:25.955Z,75.84
2022-11-28T03:22:26.309Z,75.94
2022-11-28T03:23:26.489Z,76.15
2022-11-28T03:24:26.781Z,76.25
2022-11-28T03:25:27.097Z,76.15
2022-11-28T03:26:27.401Z,76.15
2022-11-28T03:27:27.689Z,76.04
2022-11-28T03:28:28.034Z,75.63
2022-11-28T03:29:28.322Z,75.43
2022-11-28T03:30:28.709Z,75.60
2022-11-28T03:31:28.935Z,75.43
2022-11-28T03:32:29.170Z,75.01
2022-11-28T03:33:29.539Z,75.32
2022-11-28T03:34:29.826Z,75.12
2022-11-28T03:35:30.172Z,75.12
2022-11-28T03:36:30.480Z,75.01
2022-11-28T03:37:30.798Z,75.12
2022-11-28T03:38:31.091Z,75.22
2022-11-28T03:39:31.385Z,75.22
2022-11-28T03:40:31.713Z,75.12
2022-11-28T03:41:32.017Z,75.12
2022-11-28T03:42:32.344Z,75.32
2022-11-28T03:43:32.642Z,75.43
2022-11-28T03:44:32.957Z,75.43
2022-11-28T03:45:33.279Z,75.87
2022-11-28T03:46:33.654Z,75.94
2022-11-28T03:47:33.785Z,75.84
2022-11-28T03:48:34.125Z,75.98
2022-11-28T03:49:34.433Z,76.08
2022-11-28T03:50:34.808Z,76.08
2022-11-28T03:51:34.988Z,76.08
2022-11-28T03:52:35.466Z,76.18
2022-11-28T03:53:35.588Z,76.59
2022-11-28T03:54:35.959Z,76.80
2022-11-28T03:55:36.267Z,77.01
2022-11-28T03:56:36.482Z,77.01
2022-11-28T03:57:36.724Z,77.11
2022-11-28T03:58:36.916Z,77.45
2022-11-28T03:59:37.207Z,77.62
2022-11-28T04:00:37.537Z,77.52
2022-11-28T04:01:41.054Z,77.52
2022-11-28T04:02:40.541Z,77.52
2022-11-28T04:03:43.767Z,77.52
2022-11-28T04:04:43.608Z,77.42
2022-11-28T04:05:47.571Z,77.18
2022-11-28T04:06:49.714Z,77.38
2022-11-28T04:07:42.975Z,77.18
2022-11-28T04:08:44.507Z,77.08
2022-11-28T04:09:50.335Z,77.22
2022-11-28T04:10:43.019Z,77.31
2022-11-28T04:11:47.202Z,77.28
2022-11-28T04:12:43.306Z,77.38
2022-11-28T04:13:47.466Z,77.28
2022-11-28T04:14:48.106Z,77.08
2022-11-28T04:15:48.786Z,77.31
2022-11-28T04:16:53.746Z,77.62
2022-11-28T04:17:49.983Z,77.83
2022-11-28T04:18:45.182Z,78.18
2022-11-28T04:19:46.434Z,78.49
2022-11-28T04:20:50.003Z,78.69
2022-11-28T04:22:10.209Z,78.80
2022-11-28T04:22:54.360Z,79.00
2022-11-28T04:23:48.436Z,78.90
2022-11-28T04:24:59.625Z,78.90
2022-11-28T04:25:52.744Z,78.69
2022-11-28T04:26:56.378Z,78.18
2022-11-28T04:27:45.817Z,78.28
2022-11-28T04:28:52.713Z,78.69
2022-11-28T04:29:46.631Z,78.94
2022-11-28T04:30:51.755Z,79.00
2022-11-28T04:34:47.917Z,79.11
2022-11-28T04:35:22.149Z,79.00
2022-11-28T04:36:27.816Z,79.11
2022-11-28T04:37:26.467Z,79.21
2022-11-28T04:38:24.108Z,79.21
2022-11-28T04:39:24.744Z,79.00
2022-11-28T04:40:25.959Z,79.00
2022-11-28T04:41:27.054Z,79.35
2022-11-28T04:42:23.760Z,79.31
2022-11-28T04:43:53.706Z,79.21
2022-11-28T04:44:48.540Z,79.11
2022-11-28T04:45:23.682Z,79.11
2022-11-28T04:46:53.897Z,78.90
2022-11-28T04:47:30.523Z,78.69
2022-11-28T04:48:50.031Z,78.59
2022-11-28T04:49:32.684Z,78.38
2022-11-28T04:50:31.289Z,78.18
2022-11-28T04:51:32.942Z,78.38
2022-11-28T04:57:08.216Z,78.08
2022-11-28T04:57:46.344Z,78.21
2022-11-28T05:02:25.285Z,78.52
2022-11-28T05:03:03.109Z,78.21
2022-11-28T05:04:01.957Z,78.18
2022-11-28T05:05:02.166Z,78.01
2022-11-28T05:06:02.485Z,78.11
2022-11-28T05:07:02.930Z,78.08
2022-11-28T05:08:03.174Z,77.97
2022-11-28T05:09:03.377Z,78.01
2022-11-28T05:10:03.550Z,77.91
2022-11-28T05:11:03.945Z,78.01
2022-11-28T05:12:04.248Z,77.91
2022-11-28T05:13:04.569Z,78.01
2022-11-28T05:14:04.883Z,77.76
2022-11-28T05:15:05.102Z,77.66
2022-11-28T05:16:05.428Z,77.66
2022-11-28T05:17:05.687Z,77.35
2022-11-28T05:18:05.949Z,77.35
2022-11-28T05:19:06.240Z,77.35
2022-11-28T05:20:06.455Z,77.56
2022-11-28T05:21:06.729Z,77.45
2022-11-28T05:22:06.989Z,77.45
2022-11-28T05:23:07.303Z,77.35
2022-11-28T05:24:07.681Z,77.25
2022-11-28T05:25:09.698Z,77.15
2022-11-28T05:26:09.038Z,77.15
2022-11-28T05:27:23.999Z,77.04
2022-11-28T05:28:20.655Z,77.25
2022-11-28T05:29:40.815Z,77.35
2022-11-28T05:30:18.496Z,77.35
2022-11-28T05:31:42.322Z,77.35
2022-11-28T05:32:18.896Z,77.35
2022-11-28T05:33:34.557Z,77.35
2022-11-28T05:34:14.179Z,77.35
2022-11-28T05:35:13.415Z,77.25
2022-11-28T05:36:13.523Z,77.25
2022-11-28T05:37:21.456Z,77.35
2022-11-28T05:38:19.105Z,77.39
2022-11-28T05:39:19.756Z,77.49
2022-11-28T05:40:16.460Z,77.56
2022-11-28T05:41:26.614Z,77.59
2022-11-28T05:42:13.745Z,77.59
2022-11-28T05:43:15.738Z,77.59
2022-11-28T05:44:26.985Z,77.59
2022-11-28T05:45:23.705Z,77.49
2022-11-28T05:46:19.859Z,77.70
2022-11-28T05:47:25.378Z,77.70
2022-11-28T05:48:25.589Z,77.70
2022-11-28T05:49:30.190Z,77.49
2022-11-28T05:50:53.313Z,77.70
2022-11-28T05:51:23.018Z,77.70
2022-11-28T05:52:18.387Z,77.45
2022-11-28T05:57:27.965Z,77.25
2022-11-28T05:58:12.609Z,77.25
2022-11-28T05:59:04.472Z,77.25
2022-11-28T06:00:09.552Z,77.25
2022-11-28T06:01:05.516Z,77.15
2022-11-28T06:02:04.933Z,77.28
2022-11-28T06:03:09.556Z,77.39
2022-11-28T06:04:06.779Z,77.18
2022-11-28T06:05:27.746Z,77.39
2022-11-28T06:06:09.129Z,77.39
2022-11-28T06:26:34.104Z,77.15
2022-11-28T06:27:08.252Z,77.15
2022-11-28T06:28:01.835Z,77.11
2022-11-28T06:29:21.523Z,77.04
2022-11-28T06:30:05.170Z,77.11
2022-11-28T06:31:02.059Z,77.22
2022-11-28T06:32:03.054Z,77.35
2022-11-28T06:33:02.497Z,77.56
2022-11-28T06:34:02.850Z,77.76
2022-11-28T06:35:03.060Z,77.66
2022-11-28T06:36:03.396Z,77.66
2022-11-28T06:37:03.691Z,77.73
2022-11-28T06:38:03.995Z,77.52
2022-11-28T06:39:04.330Z,77.52
2022-11-28T06:40:04.562Z,77.42
2022-11-28T06:41:04.978Z,77.31
2022-11-28T06:42:05.180Z,77.22
2022-11-28T06:43:05.490Z,77.42
2022-11-28T06:44:05.673Z,77.56
2022-11-28T06:45:06.086Z,77.66
2022-11-28T06:46:06.331Z,77.87
2022-11-28T06:47:06.589Z,77.87
2022-11-28T06:48:06.789Z,78.08
2022-11-28T06:49:07.014Z,77.97
2022-11-28T06:50:07.308Z,77.76
2022-11-28T06:51:07.484Z,77.87
2022-11-28T06:52:07.830Z,77.66
2022-11-28T06:53:08.055Z,77.76
2022-11-28T06:54:08.308Z,77.52
2022-11-28T06:55:08.608Z,77.52
2022-11-28T06:56:08.801Z,77.31
2022-11-28T06:57:09.201Z,77.31
2022-11-28T06:58:09.452Z,77.42
2022-11-28T06:59:09.735Z,77.52
2022-11-28T07:00:09.941Z,77.62
2022-11-28T07:01:10.367Z,77.42
2022-11-28T07:02:10.620Z,77.52
2022-11-28T07:03:10.861Z,77.66
2022-11-28T07:04:11.079Z,77.87
2022-11-28T07:05:11.489Z,77.83
2022-11-28T07:06:11.736Z,77.97
2022-11-28T07:07:16.265Z,78.18
2022-11-28T07:08:12.283Z,78.04
2022-11-28T07:09:12.486Z,77.83
2022-11-28T07:10:12.760Z,77.94
2022-11-28T07:11:13.019Z,77.97
2022-11-28T07:12:13.227Z,78.08
2022-11-28T07:13:13.618Z,78.14
2022-11-28T07:14:13.882Z,78.18
2022-11-28T07:15:14.133Z,78.18
2022-11-28T07:16:14.461Z,78.28
2022-11-28T07:17:14.647Z,78.28
2022-11-28T07:18:14.814Z,78.34
2022-11-28T07:19:15.238Z,78.24
2022-11-28T07:20:15.429Z,78.14
2022-11-28T07:21:15.718Z,78.14
2022-11-28T07:22:15.916Z,78.04
2022-11-28T07:23:16.279Z,78.14
2022-11-28T07:24:16.543Z,78.14
2022-11-28T07:25:16.839Z,78.04
2022-11-28T07:26:17.015Z,77.94
2022-11-28T07:27:17.296Z,77.94
2022-11-28T07:28:21.912Z,77.94
2022-11-28T07:29:18.829Z,78.04
2022-11-28T07:30:18.049Z,78.14
2022-11-28T07:31:18.502Z,78.14
2022-11-28T07:32:18.750Z,78.69
2022-11-28T07:33:18.947Z,78.90
2022-11-28T07:34:19.221Z,79.00
2022-11-28T07:35:19.464Z,79.00
2022-11-28T07:36:19.759Z,79.07
2022-11-28T07:37:20.022Z,79.07
2022-11-28T07:38:20.302Z,78.97
2022-11-28T07:39:20.700Z,78.97
2022-11-28T07:40:20.801Z,78.86
2022-11-28T07:41:26.060Z,78.76
2022-11-28T07:42:22.349Z,78.66
2022-11-28T07:43:21.572Z,78.76
2022-11-28T07:44:21.956Z,78.76
2022-11-28T07:45:32.941Z,78.76
2022-11-28T07:46:23.533Z,78.76
2022-11-28T07:47:22.669Z,78.86
2022-11-28T07:48:22.951Z,78.83
2022-11-28T07:49:23.160Z,78.83
2022-11-28T07:50:23.435Z,78.72
2022-11-28T07:51:23.741Z,78.72
2022-11-28T07:52:23.958Z,78.72
2022-11-28T07:53:24.253Z,78.83
2022-11-28T07:54:24.424Z,78.76
2022-11-28T07:55:24.842Z,78.72
2022-11-28T07:56:25.102Z,78.72
2022-11-28T07:57:25.466Z,78.62
2022-11-28T07:58:25.669Z,78.41
2022-11-28T07:59:25.988Z,78.41
2022-11-28T08:00:26.275Z,78.41
2022-11-28T08:01:26.527Z,78.31
2022-11-28T08:02:26.802Z,78.31
2022-11-28T08:03:27.064Z,78.31
2022-11-28T08:04:27.436Z,78.31
2022-11-28T08:05:27.686Z,78.41
2022-11-28T08:06:27.887Z,78.41
2022-11-28T08:07:29.218Z,78.52
2022-11-28T08:08:28.385Z,78.41
2022-11-28T08:09:28.702Z,78.52
2022-11-28T08:10:28.954Z,78.52
2022-11-28T08:11:29.260Z,78.52
2022-11-28T08:12:29.552Z,78.52
2022-11-28T08:13:29.738Z,78.72
2022-11-28T08:14:30.046Z,78.52
2022-11-28T08:15:30.354Z,78.52
2022-11-28T08:16:30.710Z,78.41
2022-11-28T08:17:30.920Z,78.41
2022-11-28T08:18:31.212Z,78.17
2022-11-28T08:19:35.038Z,78.11
2022-11-28T08:20:31.751Z,78.21
2022-11-28T08:21:31.982Z,78.31
2022-11-28T08:22:32.255Z,78.41
2022-11-28T08:23:32.576Z,78.62
2022-11-28T08:24:32.779Z,78.48
2022-11-28T08:25:33.054Z,78.28
2022-11-28T08:26:33.318Z,78.17
2022-11-28T08:27:33.649Z,78.17
2022-11-28T08:28:33.964Z,78.07
2022-11-28T08:29:34.206Z,78.28
2022-11-28T08:30:34.481Z,78.28
2022-11-28T08:31:34.774Z,78.17
2022-11-28T08:32:34.980Z,78.28
2022-11-28T08:33:35.233Z,78.48
2022-11-28T08:34:35.553Z,78.62
2022-11-28T08:35:35.775Z,78.83
2022-11-28T08:36:36.034Z,78.93
2022-11-28T08:37:36.292Z,79.03
2022-11-28T08:38:36.508Z,78.89
2022-11-28T08:39:36.915Z,78.89
2022-11-28T08:40:37.120Z,79.03
2022-11-28T08:41:37.445Z,79.14
2022-11-28T08:42:37.689Z,79.00
2022-11-28T08:43:38.000Z,79.00
2022-11-28T08:44:38.263Z,79.00
2022-11-28T08:45:38.608Z,78.89
2022-11-28T08:46:38.824Z,78.89
2022-11-28T08:47:39.075Z,79.03
2022-11-28T08:48:39.335Z,79.34
2022-11-28T08:49:39.571Z,79.44
2022-11-28T08:50:43.689Z,79.44
2022-11-28T08:51:41.117Z,79.34
2022-11-28T08:52:40.397Z,79.24
2022-11-28T08:53:40.674Z,79.20
2022-11-28T08:54:41.101Z,78.89
2022-11-28T08:55:41.978Z,78.79
2022-11-28T08:56:41.497Z,78.48
2022-11-28T08:57:41.730Z,78.48
2022-11-28T08:58:42.026Z,78.79
2022-11-28T08:59:42.768Z,78.79
2022-11-28T09:00:42.577Z,78.69
2022-11-28T09:01:42.857Z,78.93
2022-11-28T09:02:43.276Z,78.79
2022-11-28T09:03:45.392Z,78.79
2022-11-28T09:04:43.815Z,78.69
2022-11-28T09:05:44.894Z,78.58
2022-11-28T09:06:44.942Z,78.58
2022-11-28T09:07:44.744Z,78.58
2022-11-28T09:08:44.916Z,78.69
2022-11-28T09:09:45.641Z,78.58
2022-11-28T09:10:45.438Z,78.48
2022-11-28T09:11:45.740Z,78.48
2022-11-28T09:12:46.013Z,78.38
2022-11-28T09:13:47.337Z,78.28
2022-11-28T09:14:46.666Z,78.58
2022-11-28T09:15:50.057Z,78.69
2022-11-28T09:16:48.260Z,78.69
2022-11-28T09:17:47.390Z,78.55
2022-11-28T09:18:47.673Z,78.34
2022-11-28T09:19:47.941Z,78.03
2022-11-28T09:20:48.231Z,78.03
2022-11-28T09:21:51.922Z,78.38
2022-11-28T09:22:49.889Z,78.58
2022-11-28T09:23:50.049Z,78.86
2022-11-28T09:24:49.339Z,78.55
2022-11-28T09:25:49.682Z,78.44
2022-11-28T09:26:49.975Z,78.24
2022-11-28T09:27:50.222Z,78.34
2022-11-28T09:28:50.461Z,78.44
2022-11-28T09:29:50.800Z,78.55
2022-11-28T09:30:51.066Z,78.75
2022-11-28T09:31:51.323Z,78.65
2022-11-28T09:32:51.623Z,78.75
2022-11-28T09:33:51.901Z,78.44
2022-11-28T09:34:52.178Z,78.44
2022-11-28T09:35:52.425Z,78.34
2022-11-28T09:36:52.705Z,78.14
2022-11-28T09:37:53.117Z,78.14
2022-11-28T09:38:53.259Z,78.14
2022-11-28T09:40:12.102Z,78.34
2022-11-28T09:40:54.888Z,78.34
2022-11-28T09:41:54.106Z,78.65
2022-11-28T09:42:54.397Z,78.75
2022-11-28T09:43:55.154Z,78.44
2022-11-28T09:44:54.899Z,78.65
2022-11-28T09:45:55.300Z,78.55
2022-11-28T09:46:55.426Z,78.65
2022-11-28T09:47:55.818Z,78.44
2022-11-28T09:48:55.927Z,78.75
2022-11-28T09:49:56.238Z,78.86
2022-11-28T09:50:56.485Z,78.65
2022-11-28T09:51:56.838Z,78.55
2022-11-28T09:52:57.223Z,78.34
2022-11-28T09:53:57.508Z,78.51
2022-11-28T09:54:57.749Z,78.44
2022-11-28T09:55:58.009Z,78.55
2022-11-28T09:56:58.399Z,78.75
2022-11-28T09:57:58.510Z,79.06
2022-11-28T09:58:58.880Z,78.65
2022-11-28T09:59:59.201Z,78.75
2022-11-28T10:00:59.531Z,79.06
2022-11-28T10:01:59.936Z,78.96
2022-11-28T10:03:00.095Z,78.86
2022-11-28T10:04:00.472Z,78.96
2022-11-28T10:05:00.756Z,79.06
2022-11-28T10:06:00.874Z,79.27
2022-11-28T10:07:01.155Z,79.27
2022-11-28T10:08:01.521Z,79.37
2022-11-28T10:09:01.697Z,79.47
2022-11-28T10:10:02.065Z,79.16
2022-11-28T10:11:02.795Z,79.16
2022-11-28T10:12:02.631Z,79.06
2022-11-28T10:13:02.893Z,79.06
2022-11-28T10:14:10.471Z,78.96
2022-11-28T10:15:04.541Z,79.47
2022-11-28T10:16:03.855Z,80.40
2022-11-28T10:17:04.242Z,80.91
2022-11-28T10:18:04.358Z,81.12
2022-11-28T10:19:04.684Z,81.63
2022-11-28T10:20:04.926Z,81.95
2022-11-28T10:21:05.183Z,81.98
2022-11-28T10:22:05.515Z,82.40
2022-11-28T10:23:05.711Z,81.98
2022-11-28T10:24:06.136Z,82.09
2022-11-28T10:25:06.400Z,82.43
2022-11-28T10:26:06.665Z,82.64
2022-11-28T10:27:06.953Z,83.26
2022-11-28T10:28:07.216Z,84.08
2022-11-28T10:29:07.560Z,84.49
2022-11-28T10:30:07.792Z,84.59
2022-11-28T10:31:08.158Z,84.80
2022-11-28T10:32:08.477Z,85.11
2022-11-28T10:33:08.689Z,85.11
2022-11-28T10:34:08.982Z,85.31
2022-11-28T10:35:09.237Z,85.22
2022-11-28T10:36:09.531Z,85.11
2022-11-28T10:37:09.778Z,85.11
2022-11-28T10:38:10.060Z,85.31
2022-11-28T10:39:11.377Z,85.31
2022-11-28T10:40:10.631Z,85.73
2022-11-28T10:41:10.895Z,85.63
2022-11-28T10:42:11.183Z,85.63
2022-11-28T10:43:11.399Z,85.83
2022-11-28T10:44:14.767Z,86.15
2022-11-28T10:45:12.946Z,86.52
2022-11-28T10:46:12.291Z,85.49
2022-11-28T10:47:12.549Z,85.07
2022-11-28T10:48:38.358Z,85.28
2022-11-28T10:49:14.110Z,85.38
2022-11-28T10:50:13.413Z,85.28
2022-11-28T10:51:13.710Z,85.07
2022-11-28T10:52:13.945Z,84.87
2022-11-28T10:53:14.195Z,84.97
2022-11-28T10:54:14.482Z,85.28
2022-11-28T10:55:14.734Z,85.59
2022-11-28T10:56:15.076Z,85.49
2022-11-28T10:57:15.275Z,85.17
2022-11-28T10:58:15.565Z,85.17
2022-11-28T10:59:15.805Z,85.14
2022-11-28T11:00:16.122Z,84.93
2022-11-28T11:01:16.456Z,85.24
2022-11-28T11:02:16.715Z,85.03
2022-11-28T11:03:16.980Z,85.14
2022-11-28T11:04:17.270Z,85.24
2022-11-28T11:05:17.541Z,85.34
2022-11-28T11:06:17.789Z,85.59
2022-11-28T11:07:22.784Z,85.69
2022-11-28T11:08:19.421Z,85.79
2022-11-28T11:09:18.634Z,85.59
2022-11-28T11:10:18.894Z,86.31
2022-11-28T11:11:19.198Z,86.31
2022-11-28T11:12:19.480Z,86.31
2022-11-28T11:13:19.751Z,86.31
2022-11-28T11:14:20.036Z,86.31
2022-11-28T11:15:20.341Z,86.52
2022-11-28T11:16:20.707Z,86.61
2022-11-28T11:17:20.793Z,86.68
2022-11-28T11:18:21.049Z,86.61
2022-11-28T11:19:21.367Z,86.61
2022-11-28T11:20:21.589Z,86.68
2022-11-28T11:21:21.867Z,86.99
2022-11-28T11:22:22.097Z,86.47
2022-11-28T11:23:22.330Z,86.58
2022-11-28T11:24:22.649Z,86.79
2022-11-28T11:25:22.877Z,86.41
2022-11-28T11:26:23.128Z,86.61
2022-11-28T11:27:23.445Z,86.52
2022-11-28T11:28:23.700Z,86.93
2022-11-28T11:29:24.024Z,87.13
2022-11-28T11:30:25.273Z,86.93
2022-11-28T11:31:24.667Z,87.13
2022-11-28T11:32:24.915Z,87.54
2022-11-28T11:33:25.177Z,87.09
2022-11-28T11:34:25.563Z,87.44
2022-11-28T11:35:25.780Z,87.30
2022-11-28T11:36:26.072Z,87.71
2022-11-28T11:37:26.312Z,87.54
2022-11-28T11:38:26.568Z,87.85
2022-11-28T11:39:26.822Z,88.78
2022-11-28T11:40:27.094Z,88.78
2022-11-28T11:41:27.427Z,88.37
2022-11-28T11:42:27.649Z,88.26
2022-11-28T11:43:27.946Z,88.68
2022-11-28T11:44:28.201Z,88.64
2022-11-28T11:45:28.480Z,88.95
2022-11-28T11:46:28.866Z,89.25
2022-11-28T11:47:29.061Z,88.64
2022-11-28T11:48:29.375Z,88.95
2022-11-28T11:49:29.655Z,88.43
2022-11-28T11:50:29.976Z,87.92
2022-11-28T11:51:32.770Z,88.23
2022-11-28T11:52:31.551Z,88.53
2022-11-28T11:53:30.803Z,88.64
2022-11-28T11:54:31.073Z,88.53
2022-11-28T11:55:32.250Z,88.53
2022-11-28T11:56:31.683Z,88.95
2022-11-28T11:57:33.855Z,88.74
2022-11-28T11:58:32.270Z,88.95
2022-11-28T11:59:32.472Z,89.25
2022-11-28T12:00:32.789Z,88.95
2022-11-28T12:01:34.507Z,88.53
2022-11-28T12:02:33.512Z,88.64
2022-11-28T12:03:33.782Z,89.15
2022-11-28T12:04:54.984Z,89.15
2022-11-28T12:05:59.084Z,89.36
2022-11-28T12:06:35.620Z,89.46
2022-11-28T12:07:34.863Z,89.87
2022-11-28T12:08:35.167Z,89.67
2022-11-28T12:09:35.357Z,89.25
2022-11-28T12:10:35.611Z,89.97
2022-11-28T12:11:35.919Z,89.87
2022-11-28T12:12:36.282Z,89.67
2022-11-28T12:13:36.527Z,89.25
2022-11-28T12:14:36.841Z,89.56
2022-11-28T12:15:37.093Z,89.56
2022-11-28T12:16:37.453Z,89.36
2022-11-28T12:17:58.338Z,89.36
2022-11-28T12:18:39.020Z,89.62
2022-11-28T12:19:38.178Z,89.83
2022-11-28T12:20:38.453Z,89.42
2022-11-28T12:21:38.754Z,89.22
2022-11-28T12:22:39.005Z,88.80
2022-11-28T12:23:39.286Z,89.11
2022-11-28T12:24:39.551Z,89.31
2022-11-28T12:25:39.823Z,89.22
2022-11-28T12:26:40.129Z,90.14
2022-11-28T12:27:40.321Z,89.83
2022-11-28T12:28:40.662Z,89.42
2022-11-28T12:29:40.898Z,89.62
2022-11-28T12:30:44.590Z,89.52
2022-11-28T12:31:41.540Z,89.52
2022-11-28T12:32:41.755Z,89.28
2022-11-28T12:33:42.099Z,89.58
2022-11-28T12:34:42.386Z,88.86
2022-11-28T12:35:42.668Z,88.86
2022-11-28T12:36:42.963Z,89.07
2022-11-28T12:38:09.888Z,89.28
2022-11-28T12:38:44.542Z,88.66
2022-11-28T12:39:43.970Z,88.14
2022-11-28T12:40:44.103Z,88.35
2022-11-28T12:41:44.395Z,88.24
2022-11-28T12:42:44.648Z,88.96
2022-11-28T12:43:45.009Z,88.66
2022-11-28T12:44:45.245Z,88.35
2022-11-28T12:45:46.426Z,88.04
2022-11-28T12:46:45.948Z,88.20
2022-11-28T12:47:46.025Z,87.79
2022-11-28T12:48:51.630Z,87.73
2022-11-28T12:49:47.707Z,88.00
2022-11-28T12:50:46.888Z,87.90
2022-11-28T12:51:47.121Z,88.00
2022-11-28T12:52:47.406Z,87.59
2022-11-28T12:53:47.674Z,87.59
2022-11-28T12:54:47.936Z,86.87
2022-11-28T12:55:48.193Z,86.46
2022-11-28T12:56:48.586Z,86.56
2022-11-28T12:57:48.823Z,86.66
2022-11-28T12:58:49.077Z,86.66
2022-11-28T12:59:49.399Z,86.56
2022-11-28T13:00:49.616Z,86.05
2022-11-28T13:01:49.903Z,85.84
2022-11-28T13:02:50.344Z,85.74
2022-11-28T13:03:50.494Z,85.74
2022-11-28T13:04:50.783Z,85.94
2022-11-28T13:05:51.050Z,86.46
2022-11-28T13:06:51.307Z,86.46
2022-11-28T13:07:51.577Z,86.77
2022-11-28T13:08:52.077Z,86.66
2022-11-28T13:09:52.175Z,86.42
2022-11-28T13:10:52.411Z,86.72
2022-11-28T13:11:52.694Z,87.24
2022-11-28T13:12:52.969Z,87.45
2022-11-28T13:13:53.267Z,87.13
2022-11-28T13:14:53.529Z,87.04
2022-11-28T13:15:53.853Z,86.62
2022-11-28T13:16:54.380Z,86.52
2022-11-28T13:17:54.340Z,86.42
2022-11-28T13:18:54.621Z,87.24
2022-11-28T13:19:54.889Z,87.51
2022-11-28T13:20:55.267Z,87.61
2022-11-28T13:21:55.497Z,87.40
2022-11-28T13:22:55.774Z,86.99
2022-11-28T13:23:56.051Z,86.89
2022-11-28T13:24:56.324Z,86.89
2022-11-28T13:25:56.595Z,86.68
2022-11-28T13:26:56.938Z,86.58
2022-11-28T13:27:57.211Z,87.20
2022-11-28T13:28:57.462Z,87.10